Time;durP1;ratioP1;P1;durP2;ratioP2;P2;SDS_P1;SDS_P2;PMS_P1;PMS_P2;Temp;Humidity;BMP_temperature;BMP_pressure;BME280_temperature;BME280_humidity;BME280_pressure;Samples;Min_cycle;Max_cycle;Signal;HPM_P1;HPM_P2
2021/09/15 00:00:53;;;;;;;198.30;32.40;;;;;;;;;;5052965;28;20064;-77
2021/09/15 00:03:19;;;;;;;169.05;30.77;;;;;;;;;;5053035;28;20405;-77
2021/09/15 00:05:44;;;;;;;281.25;34.90;;;;;;;;;;5053070;28;20029;-77
2021/09/15 00:08:11;;;;;;;271.08;35.17;;;;;;;;;;5052874;28;20033;-76
2021/09/15 00:10:36;;;;;;;177.63;31.15;;;;;;;;;;5053219;28;20017;-77
2021/09/15 00:13:02;;;;;;;184.85;29.90;;;;;;;;;;5053976;28;20040;-77
2021/09/15 00:15:27;;;;;;;127.10;27.10;;;;;;;;;;5056863;28;20033;-77
2021/09/15 00:17:52;;;;;;;280.70;32.83;;;;;;;;;;5056962;28;20096;-77
2021/09/15 00:20:17;;;;;;;286.05;33.42;;;;;;;;;;5056695;28;20029;-77
2021/09/15 00:22:43;;;;;;;139.93;26.80;;;;;;;;;;5056342;28;20377;-77
2021/09/15 00:25:08;;;;;;;282.42;35.58;;;;;;;;;;5056661;28;20116;-78
2021/09/15 00:27:33;;;;;;;174.43;30.52;;;;;;;;;;5056399;28;20043;-77
2021/09/15 00:29:59;;;;;;;134.65;26.80;;;;;;;;;;5056948;28;20033;-77
2021/09/15 00:32:24;;;;;;;179.20;31.45;;;;;;;;;;5056634;28;20056;-77
2021/09/15 00:34:49;;;;;;;189.40;31.48;;;;;;;;;;5056155;28;20037;-77
2021/09/15 00:37:15;;;;;;;179.77;31.85;;;;;;;;;;5056450;28;20043;-78
2021/09/15 00:39:40;;;;;;;137.05;27.95;;;;;;;;;;5056462;28;20043;-76
2021/09/15 00:42:05;;;;;;;153.05;29.63;;;;;;;;;;5056135;28;20057;-77
2021/09/15 00:44:31;;;;;;;120.57;26.35;;;;;;;;;;5056323;28;20049;-77
2021/09/15 00:46:56;;;;;;;137.07;27.88;;;;;;;;;;5056367;28;20021;-78
2021/09/15 00:49:21;;;;;;;110.10;25.20;;;;;;;;;;5056254;28;20074;-77
2021/09/15 00:51:46;;;;;;;159.98;29.60;;;;;;;;;;5056376;28;20029;-77
2021/09/15 00:54:13;;;;;;;210.80;33.20;;;;;;;;;;5056146;28;20017;-77
2021/09/15 00:56:38;;;;;;;215.38;32.70;;;;;;;;;;5056190;28;20384;-77
2021/09/15 00:59:04;;;;;;;205.00;32.10;;;;;;;;;;5056052;28;20029;-77
2021/09/15 01:01:29;;;;;;;188.80;31.70;;;;;;;;;;5056120;28;20114;-77
2021/09/15 01:03:55;;;;;;;109.15;25.70;;;;;;;;;;5056006;28;20048;-77
2021/09/15 01:06:20;;;;;;;176.32;30.90;;;;;;;;;;5055969;28;20449;-77
2021/09/15 01:08:46;;;;;;;131.52;28.08;;;;;;;;;;5055969;28;20017;-76
2021/09/15 01:11:11;;;;;;;200.00;33.15;;;;;;;;;;5055858;28;20490;-77
2021/09/15 01:13:37;;;;;;;172.48;29.52;;;;;;;;;;5055838;28;20492;-77
2021/09/15 01:16:06;;;;;;;179.07;30.77;;;;;;;;;;5055880;28;20108;-77
2021/09/15 01:18:32;;;;;;;126.43;26.02;;;;;;;;;;5055787;28;20032;-77
2021/09/15 01:20:57;;;;;;;148.07;27.58;;;;;;;;;;5055495;28;20086;-79
2021/09/15 01:23:23;;;;;;;155.50;29.60;;;;;;;;;;5055308;28;20025;-77
2021/09/15 01:25:48;;;;;;;115.50;25.83;;;;;;;;;;5055027;28;20482;-77
2021/09/15 01:28:14;;;;;;;170.07;29.15;;;;;;;;;;5055287;28;20465;-77
2021/09/15 01:30:39;;;;;;;147.20;27.25;;;;;;;;;;5055563;28;20024;-77
2021/09/15 01:33:08;;;;;;;129.13;25.75;;;;;;;;;;5055866;28;20449;-78
2021/09/15 01:35:33;;;;;;;93.38;23.10;;;;;;;;;;5055368;28;20032;-77
2021/09/15 01:37:59;;;;;;;135.70;25.88;;;;;;;;;;5055308;28;20424;-78
2021/09/15 01:40:24;;;;;;;141.80;28.88;;;;;;;;;;5055469;28;20096;-77
2021/09/15 01:42:50;;;;;;;135.15;25.15;;;;;;;;;;5055190;28;20025;-77
2021/09/15 01:45:15;;;;;;;184.38;27.83;;;;;;;;;;5055087;28;20033;-78
2021/09/15 01:47:41;;;;;;;254.82;33.20;;;;;;;;;;5055049;28;20393;-77
2021/09/15 01:50:06;;;;;;;194.25;30.25;;;;;;;;;;5055151;28;20083;-77
2021/09/15 01:52:32;;;;;;;107.10;25.08;;;;;;;;;;5055127;28;20064;-77
2021/09/15 01:54:57;;;;;;;122.82;24.92;;;;;;;;;;5055172;28;20036;-77
2021/09/15 01:57:22;;;;;;;222.70;32.05;;;;;;;;;;5055255;28;20112;-77
2021/09/15 01:59:48;;;;;;;185.13;30.60;;;;;;;;;;5055183;28;20365;-77
2021/09/15 02:02:13;;;;;;;133.55;26.75;;;;;;;;;;5054847;28;20033;-77
2021/09/15 02:04:39;;;;;;;156.05;29.10;;;;;;;;;;5054753;28;20033;-77
2021/09/15 02:07:04;;;;;;;215.77;32.80;;;;;;;;;;5054868;28;20017;-77
2021/09/15 02:09:30;;;;;;;164.60;31.02;;;;;;;;;;5054840;28;20440;-77
2021/09/15 02:11:55;;;;;;;146.77;29.35;;;;;;;;;;5055059;28;20040;-77
2021/09/15 02:14:21;;;;;;;167.10;30.00;;;;;;;;;;5054675;28;20067;-77
2021/09/15 02:16:46;;;;;;;134.82;27.85;;;;;;;;;;5054768;28;20029;-77
2021/09/15 02:19:11;;;;;;;102.35;24.42;;;;;;;;;;5054611;28;20032;-77
2021/09/15 02:21:37;;;;;;;101.50;25.08;;;;;;;;;;5054632;28;20032;-77
2021/09/15 02:24:02;;;;;;;218.70;33.78;;;;;;;;;;5054476;28;20040;-77
2021/09/15 02:26:30;;;;;;;165.88;30.63;;;;;;;;;;5054510;28;20040;-77
2021/09/15 02:28:56;;;;;;;202.23;32.17;;;;;;;;;;5054517;28;20020;-77
2021/09/15 02:31:21;;;;;;;225.65;35.85;;;;;;;;;;5054334;28;20032;-77
2021/09/15 02:33:47;;;;;;;282.60;36.47;;;;;;;;;;5054675;28;20474;-77
2021/09/15 02:36:12;;;;;;;105.93;24.95;;;;;;;;;;5053532;28;20096;-77
2021/09/15 02:38:37;;;;;;;161.82;28.85;;;;;;;;;;5054067;28;20074;-77
2021/09/15 02:41:02;;;;;;;268.38;34.97;;;;;;;;;;5054256;28;20037;-77
2021/09/15 02:43:27;;;;;;;179.60;30.50;;;;;;;;;;5054048;28;20056;-77
2021/09/15 02:45:53;;;;;;;270.30;33.70;;;;;;;;;;5053899;28;20087;-77
2021/09/15 02:48:18;;;;;;;126.53;25.50;;;;;;;;;;5053973;28;20032;-77
2021/09/15 02:50:43;;;;;;;115.03;25.35;;;;;;;;;;5054072;28;20028;-77
2021/09/15 02:53:09;;;;;;;116.82;25.77;;;;;;;;;;5053991;28;20381;-77
2021/09/15 02:55:34;;;;;;;130.02;27.13;;;;;;;;;;5054076;28;20064;-76
2021/09/15 02:58:00;;;;;;;148.80;29.67;;;;;;;;;;5053960;28;20419;-79
2021/09/15 03:00:25;;;;;;;208.05;33.05;;;;;;;;;;5052590;28;20040;-77
2021/09/15 03:02:50;;;;;;;198.75;33.10;;;;;;;;;;5053987;28;20596;-76
2021/09/15 03:05:15;;;;;;;238.18;33.95;;;;;;;;;;5053321;28;20076;-77
2021/09/15 03:07:41;;;;;;;285.70;35.60;;;;;;;;;;5054134;28;20123;-76
2021/09/15 03:10:07;;;;;;;315.25;37.65;;;;;;;;;;5053680;28;20029;-78
2021/09/15 03:12:32;;;;;;;453.13;41.60;;;;;;;;;;5053658;28;20461;-77
2021/09/15 03:14:57;;;;;;;335.02;38.13;;;;;;;;;;5053623;28;20384;-77
2021/09/15 03:17:23;;;;;;;245.93;35.20;;;;;;;;;;5053463;28;20491;-77
2021/09/15 03:19:48;;;;;;;255.18;34.95;;;;;;;;;;5053697;28;20025;-77
2021/09/15 03:22:13;;;;;;;216.55;34.00;;;;;;;;;;5053248;28;20032;-77
2021/09/15 03:24:39;;;;;;;184.02;32.33;;;;;;;;;;5053379;28;20064;-77
2021/09/15 03:27:04;;;;;;;193.25;32.83;;;;;;;;;;5053483;28;20071;-76
2021/09/15 03:29:30;;;;;;;199.35;33.20;;;;;;;;;;5053317;28;20128;-77
2021/09/15 03:31:55;;;;;;;284.60;35.83;;;;;;;;;;5053418;28;20086;-77
2021/09/15 03:34:21;;;;;;;181.52;31.05;;;;;;;;;;5053686;28;20409;-77
2021/09/15 03:36:46;;;;;;;217.35;35.38;;;;;;;;;;5053232;28;20044;-77
2021/09/15 03:39:14;;;;;;;168.52;32.13;;;;;;;;;;5053008;28;20025;-77
2021/09/15 03:41:39;;;;;;;161.43;31.67;;;;;;;;;;5053181;28;20013;-77
2021/09/15 03:44:04;;;;;;;222.57;33.30;;;;;;;;;;5053266;28;20044;-77
2021/09/15 03:46:29;;;;;;;160.43;30.92;;;;;;;;;;5053155;28;20495;-77
2021/09/15 03:48:55;;;;;;;198.38;32.75;;;;;;;;;;5058191;28;20021;-77
2021/09/15 03:51:20;;;;;;;214.27;33.97;;;;;;;;;;5060014;28;20043;-78
2021/09/15 03:53:45;;;;;;;241.30;34.28;;;;;;;;;;5059953;28;20060;-77
2021/09/15 03:56:10;;;;;;;290.77;36.47;;;;;;;;;;5059493;28;20039;-77
2021/09/15 03:58:36;;;;;;;183.85;33.53;;;;;;;;;;5059851;28;20076;-78
2021/09/15 04:01:01;;;;;;;189.27;30.63;;;;;;;;;;5059512;28;20029;-77
2021/09/15 04:03:26;;;;;;;214.50;33.63;;;;;;;;;;5059641;28;20060;-77
2021/09/15 04:05:52;;;;;;;151.82;31.90;;;;;;;;;;5059443;28;20025;-77
2021/09/15 04:08:17;;;;;;;318.52;40.63;;;;;;;;;;5059601;28;20033;-77
2021/09/15 04:10:42;;;;;;;208.73;36.97;;;;;;;;;;5059766;28;20025;-77
2021/09/15 04:13:07;;;;;;;184.88;36.25;;;;;;;;;;5059649;28;20029;-79
2021/09/15 04:15:33;;;;;;;300.25;42.88;;;;;;;;;;5059739;28;20365;-77
2021/09/15 04:17:58;;;;;;;209.52;39.25;;;;;;;;;;5059707;28;20020;-77
2021/09/15 04:20:23;;;;;;;282.40;42.45;;;;;;;;;;5059111;28;20029;-77
2021/09/15 04:22:49;;;;;;;326.65;42.22;;;;;;;;;;5059706;28;20111;-77
2021/09/15 04:33:26;;;;;;;387.10;50.63;;;;;;;;;;5058999;28;20087;-77
2021/09/15 04:35:51;;;;;;;367.65;53.72;;;;;;;;;;5059481;28;20032;-77
2021/09/15 04:38:16;;;;;;;306.95;52.30;;;;;;;;;;5059109;28;20033;-77
2021/09/15 04:40:42;;;;;;;309.48;52.78;;;;;;;;;;5059473;28;20017;-77
2021/09/15 04:43:07;;;;;;;391.92;60.13;;;;;;;;;;5059494;28;20528;-77
2021/09/15 04:45:32;;;;;;;322.30;55.65;;;;;;;;;;5059305;28;20041;-77
2021/09/15 04:47:57;;;;;;;326.75;58.20;;;;;;;;;;5058432;28;20016;-77
2021/09/15 04:50:23;;;;;;;378.50;58.72;;;;;;;;;;5059271;28;20029;-77
2021/09/15 04:52:48;;;;;;;395.00;56.85;;;;;;;;;;5059028;28;20362;-77
2021/09/15 04:55:13;;;;;;;264.17;56.78;;;;;;;;;;5059299;28;20098;-77
2021/09/15 04:57:38;;;;;;;273.42;60.80;;;;;;;;;;5059319;28;20385;-77
2021/09/15 05:00:04;;;;;;;347.35;58.60;;;;;;;;;;5056473;28;20035;-77
2021/09/15 05:02:29;;;;;;;434.10;62.75;;;;;;;;;;5054791;28;20354;-77
2021/09/15 05:04:54;;;;;;;329.50;63.10;;;;;;;;;;5054770;28;20155;-77
2021/09/15 05:07:20;;;;;;;391.38;57.47;;;;;;;;;;5055950;28;20044;-78
2021/09/15 05:09:45;;;;;;;459.38;62.47;;;;;;;;;;5055966;28;20104;-78
2021/09/15 05:12:10;;;;;;;356.27;63.00;;;;;;;;;;5055930;28;20032;-77
2021/09/15 05:14:35;;;;;;;432.35;64.68;;;;;;;;;;5055588;28;20083;-77
2021/09/15 05:17:01;;;;;;;420.35;62.65;;;;;;;;;;5055795;28;20096;-77
2021/09/15 05:19:26;;;;;;;347.52;62.28;;;;;;;;;;5055762;28;20036;-77
2021/09/15 05:21:51;;;;;;;374.40;61.33;;;;;;;;;;5055758;28;20033;-78
2021/09/15 05:24:17;;;;;;;324.55;55.95;;;;;;;;;;5055237;28;20127;-78
2021/09/15 05:26:42;;;;;;;380.38;61.90;;;;;;;;;;5055660;28;20025;-78
2021/09/15 05:29:07;;;;;;;432.48;61.38;;;;;;;;;;5055652;28;20033;-78
2021/09/15 05:31:32;;;;;;;377.77;61.42;;;;;;;;;;5055411;28;20377;-78
2021/09/15 05:33:58;;;;;;;367.33;60.10;;;;;;;;;;5055439;28;20439;-78
2021/09/15 05:36:23;;;;;;;467.50;61.75;;;;;;;;;;5055315;28;20044;-78
2021/09/15 05:38:48;;;;;;;469.58;62.15;;;;;;;;;;5055490;28;20021;-77
2021/09/15 05:41:13;;;;;;;474.83;61.80;;;;;;;;;;5055313;28;20417;-77
2021/09/15 05:43:38;;;;;;;351.35;58.22;;;;;;;;;;5055271;28;20044;-77
2021/09/15 05:46:04;;;;;;;402.45;58.17;;;;;;;;;;5055409;28;20017;-78
2021/09/15 05:48:29;;;;;;;378.30;59.45;;;;;;;;;;5055211;28;20366;-77
2021/09/15 05:50:54;;;;;;;384.67;60.95;;;;;;;;;;5055549;28;20029;-77
2021/09/15 05:53:20;;;;;;;384.17;58.92;;;;;;;;;;5055072;28;20120;-78
2021/09/15 05:55:45;;;;;;;353.92;57.47;;;;;;;;;;5055277;28;20083;-77
2021/09/15 05:58:10;;;;;;;439.38;62.00;;;;;;;;;;5055019;28;20036;-78
2021/09/15 06:00:36;;;;;;;402.63;61.17;;;;;;;;;;5054835;28;20029;-78
2021/09/15 06:03:01;;;;;;;434.48;60.55;;;;;;;;;;5054937;28;20116;-78
2021/09/15 06:05:26;;;;;;;334.90;58.58;;;;;;;;;;5054849;28;20049;-77
2021/09/15 06:07:51;;;;;;;403.73;59.35;;;;;;;;;;5054666;28;20024;-77
2021/09/15 06:10:17;;;;;;;418.60;61.33;;;;;;;;;;5054788;28;20036;-78
2021/09/15 06:12:42;;;;;;;404.40;63.08;;;;;;;;;;5054447;28;20135;-78
2021/09/15 06:15:08;;;;;;;362.70;57.58;;;;;;;;;;5054493;28;20100;-78
2021/09/15 06:17:33;;;;;;;303.65;53.85;;;;;;;;;;5054603;28;20025;-77
2021/09/15 06:19:58;;;;;;;321.38;55.92;;;;;;;;;;5054714;28;20529;-77
2021/09/15 06:22:23;;;;;;;440.90;61.30;;;;;;;;;;5054547;28;20067;-77
2021/09/15 06:24:53;;;;;;;408.98;57.88;;;;;;;;;;5054813;28;20033;-77
2021/09/15 06:27:18;;;;;;;315.80;54.97;;;;;;;;;;5054356;28;20112;-78
2021/09/15 06:29:44;;;;;;;343.77;56.28;;;;;;;;;;5054491;28;20032;-77
2021/09/15 06:32:09;;;;;;;366.95;57.42;;;;;;;;;;5052960;28;20044;-79
2021/09/15 06:34:34;;;;;;;473.20;60.35;;;;;;;;;;5054376;28;20462;-77
2021/09/15 06:37:00;;;;;;;397.33;58.78;;;;;;;;;;5054334;28;20032;-78
2021/09/15 06:39:25;;;;;;;237.20;52.42;;;;;;;;;;5054157;28;20029;-78
2021/09/15 06:41:50;;;;;;;314.92;54.95;;;;;;;;;;5053935;28;20375;-78
2021/09/15 06:44:16;;;;;;;335.92;55.28;;;;;;;;;;5054359;28;20158;-77
2021/09/15 06:46:41;;;;;;;371.95;55.05;;;;;;;;;;5054196;28;20028;-78
2021/09/15 06:49:06;;;;;;;294.75;54.88;;;;;;;;;;5054200;28;20036;-78
2021/09/15 06:51:31;;;;;;;305.63;53.53;;;;;;;;;;5053929;28;20029;-78
2021/09/15 06:53:57;;;;;;;324.10;53.75;;;;;;;;;;5054039;28;20493;-77
2021/09/15 06:56:22;;;;;;;317.27;55.20;;;;;;;;;;5053793;28;20040;-78
2021/09/15 06:58:47;;;;;;;254.63;51.03;;;;;;;;;;5052380;28;20457;-81
2021/09/15 07:01:12;;;;;;;285.50;51.30;;;;;;;;;;5048023;28;20029;-79
2021/09/15 07:03:38;;;;;;;252.88;50.92;;;;;;;;;;5049936;28;20378;-78
2021/09/15 07:06:03;;;;;;;226.90;48.83;;;;;;;;;;5049636;28;20052;-79
2021/09/15 07:08:29;;;;;;;283.13;52.40;;;;;;;;;;5049475;28;20048;-78
2021/09/15 07:10:54;;;;;;;236.57;51.35;;;;;;;;;;5051094;28;20036;-78
2021/09/15 07:13:19;;;;;;;219.93;47.35;;;;;;;;;;5049746;28;20108;-78
2021/09/15 07:15:44;;;;;;;226.68;48.85;;;;;;;;;;5049862;28;20025;-79
2021/09/15 07:18:10;;;;;;;200.43;48.85;;;;;;;;;;5050425;28;20123;-79
2021/09/15 07:20:35;;;;;;;233.98;49.28;;;;;;;;;;5048930;28;20036;-78
2021/09/15 07:23:00;;;;;;;214.35;46.97;;;;;;;;;;5049946;28;20040;-78
2021/09/15 07:25:26;;;;;;;182.85;44.85;;;;;;;;;;5049664;28;20048;-77
2021/09/15 07:27:51;;;;;;;190.35;45.58;;;;;;;;;;5049973;28;20583;-77
2021/09/15 07:30:16;;;;;;;216.57;47.60;;;;;;;;;;5041314;28;20029;-79
2021/09/15 07:32:42;;;;;;;202.30;46.60;;;;;;;;;;5046548;28;20051;-78
2021/09/15 07:35:09;;;;;;;166.88;44.38;;;;;;;;;;5039594;28;20468;-78
2021/09/15 07:37:35;;;;;;;167.13;43.55;;;;;;;;;;5047455;28;20080;-80
2021/09/15 07:40:00;;;;;;;181.35;43.13;;;;;;;;;;5047733;28;20161;-78
2021/09/15 07:42:26;;;;;;;148.35;41.17;;;;;;;;;;5048483;28;20480;-78
2021/09/15 07:44:51;;;;;;;190.20;44.00;;;;;;;;;;5047713;28;20033;-78
2021/09/15 07:47:17;;;;;;;168.45;42.25;;;;;;;;;;5048551;28;20039;-79
2021/09/15 07:49:43;;;;;;;128.85;39.05;;;;;;;;;;5049982;28;20366;-79
2021/09/15 07:52:08;;;;;;;149.15;40.83;;;;;;;;;;5039202;28;20053;-78
2021/09/15 07:54:34;;;;;;;128.50;37.60;;;;;;;;;;5046217;28;20064;-78
2021/09/15 07:56:59;;;;;;;131.65;38.47;;;;;;;;;;5034430;28;20032;-79
2021/09/15 07:59:24;;;;;;;111.05;37.20;;;;;;;;;;5025930;28;20469;-78
2021/09/15 08:01:49;;;;;;;114.28;35.75;;;;;;;;;;5027626;28;20037;-79
2021/09/15 08:04:15;;;;;;;124.18;37.90;;;;;;;;;;5026472;28;20069;-79
2021/09/15 08:06:40;;;;;;;118.32;34.55;;;;;;;;;;5038846;28;20036;-80
2021/09/15 08:09:05;;;;;;;107.50;34.22;;;;;;;;;;5046696;28;20048;-78
2021/09/15 08:11:32;;;;;;;102.30;32.38;;;;;;;;;;5046088;28;20017;-78
2021/09/15 08:13:57;;;;;;;86.55;30.95;;;;;;;;;;5046610;28;20036;-79
2021/09/15 08:16:22;;;;;;;93.93;30.27;;;;;;;;;;5047786;28;20377;-80
2021/09/15 08:18:48;;;;;;;85.95;30.25;;;;;;;;;;5047306;28;20458;-78
2021/09/15 08:21:13;;;;;;;83.10;29.85;;;;;;;;;;5047849;28;20068;-78
2021/09/15 08:23:38;;;;;;;75.47;27.65;;;;;;;;;;5047070;28;20041;-78
2021/09/15 08:26:04;;;;;;;78.72;28.98;;;;;;;;;;5045155;28;20021;-78
2021/09/15 08:28:29;;;;;;;88.85;29.88;;;;;;;;;;5045782;28;20088;-80
2021/09/15 08:30:54;;;;;;;81.93;29.42;;;;;;;;;;5048411;28;20465;-78
2021/09/15 08:33:19;;;;;;;75.22;29.40;;;;;;;;;;5046972;28;20060;-78
2021/09/15 08:35:45;;;;;;;127.43;31.92;;;;;;;;;;5049385;28;20021;-78
2021/09/15 08:38:11;;;;;;;71.68;29.48;;;;;;;;;;5051569;28;20098;-78
2021/09/15 08:40:36;;;;;;;72.28;28.08;;;;;;;;;;5052033;28;20122;-78
2021/09/15 08:43:02;;;;;;;65.45;26.13;;;;;;;;;;5050174;28;20469;-79
2021/09/15 08:45:27;;;;;;;68.20;26.88;;;;;;;;;;5051701;28;20044;-79
2021/09/15 08:47:53;;;;;;;69.32;25.98;;;;;;;;;;5052249;28;20029;-78
2021/09/15 08:50:18;;;;;;;63.20;26.38;;;;;;;;;;5050173;28;20029;-77
2021/09/15 08:52:44;;;;;;;64.13;27.45;;;;;;;;;;5051604;28;20541;-79
2021/09/15 08:55:10;;;;;;;57.50;25.25;;;;;;;;;;5050783;28;20020;-78
2021/09/15 08:57:35;;;;;;;60.10;25.13;;;;;;;;;;5052497;28;20060;-78
2021/09/15 09:00:01;;;;;;;56.65;25.33;;;;;;;;;;5052805;28;20067;-79
2021/09/15 09:02:33;;;;;;;50.13;23.42;;;;;;;;;;5052295;28;20031;-78
2021/09/15 09:05:00;;;;;;;50.17;23.60;;;;;;;;;;5051890;28;20049;-78
2021/09/15 09:07:26;;;;;;;47.22;21.65;;;;;;;;;;5051868;28;20064;-78
2021/09/15 09:09:53;;;;;;;43.38;22.40;;;;;;;;;;5052113;28;20080;-78
2021/09/15 09:12:19;;;;;;;44.20;21.55;;;;;;;;;;5051922;28;20426;-79
2021/09/15 09:14:45;;;;;;;45.53;22.85;;;;;;;;;;5052034;28;20063;-79
2021/09/15 09:17:26;;;;;;;42.03;21.75;;;;;;;;;;5051948;28;20057;-78
2021/09/15 09:20:10;;;;;;;37.10;20.45;;;;;;;;;;5051998;28;20126;-78
2021/09/15 09:22:54;;;;;;;35.88;19.02;;;;;;;;;;5051723;28;21292;-78
2021/09/15 09:25:19;;;;;;;37.85;19.30;;;;;;;;;;5051791;28;20041;-78
2021/09/15 09:27:45;;;;;;;31.08;16.85;;;;;;;;;;5051250;28;20120;-79
2021/09/15 09:30:28;;;;;;;31.23;17.85;;;;;;;;;;5052335;28;20413;-78
2021/09/15 09:32:54;;;;;;;26.05;16.63;;;;;;;;;;5051606;28;20049;-78
2021/09/15 09:35:20;;;;;;;26.35;15.88;;;;;;;;;;5051007;28;20057;-78
2021/09/15 09:37:46;;;;;;;25.98;16.55;;;;;;;;;;5051423;28;20029;-78
2021/09/15 09:40:18;;;;;;;22.00;14.65;;;;;;;;;;5051593;28;20025;-79
2021/09/15 09:42:43;;;;;;;25.42;15.40;;;;;;;;;;5052534;28;20037;-79
2021/09/15 09:45:13;;;;;;;21.88;14.13;;;;;;;;;;5051042;28;20044;-79
2021/09/15 09:47:38;;;;;;;23.10;14.25;;;;;;;;;;5051135;28;20021;-79
2021/09/15 09:50:12;;;;;;;18.35;12.80;;;;;;;;;;5050939;28;20039;-79
2021/09/15 09:52:57;;;;;;;17.33;13.15;;;;;;;;;;5051359;28;20060;-79
2021/09/15 09:55:23;;;;;;;18.37;12.70;;;;;;;;;;5049731;28;20458;-79
2021/09/15 09:57:49;;;;;;;16.90;12.27;;;;;;;;;;5051057;28;20353;-79
2021/09/15 10:00:14;;;;;;;14.93;11.35;;;;;;;;;;5051293;28;20017;-80
2021/09/15 10:02:40;;;;;;;19.30;13.73;;;;;;;;;;5051793;28;20108;-79
2021/09/15 10:05:05;;;;;;;17.52;12.15;;;;;;;;;;5050570;28;20041;-79
2021/09/15 10:07:30;;;;;;;14.68;10.25;;;;;;;;;;5050407;28;20052;-80
2021/09/15 10:09:57;;;;;;;17.70;13.00;;;;;;;;;;5050797;28;20028;-81
2021/09/15 10:12:22;;;;;;;17.45;12.07;;;;;;;;;;5051666;28;20033;-79
2021/09/15 10:14:49;;;;;;;16.02;11.73;;;;;;;;;;5051062;28;20037;-79
2021/09/15 10:17:15;;;;;;;13.45;10.65;;;;;;;;;;5050846;28;20021;-78
2021/09/15 10:19:43;;;;;;;16.40;11.63;;;;;;;;;;5049091;28;20036;-79
2021/09/15 10:22:09;;;;;;;13.05;9.25;;;;;;;;;;5050907;28;20017;-79
2021/09/15 10:24:49;;;;;;;14.45;11.10;;;;;;;;;;5050236;28;20374;-83
2021/09/15 10:27:15;;;;;;;12.70;9.35;;;;;;;;;;5050638;28;20112;-79
2021/09/15 10:29:41;;;;;;;16.50;10.52;;;;;;;;;;5050013;28;20157;-78
2021/09/15 10:32:10;;;;;;;14.25;10.90;;;;;;;;;;5050605;28;20045;-78
2021/09/15 10:34:38;;;;;;;14.20;10.05;;;;;;;;;;5050462;28;20492;-79
2021/09/15 10:37:04;;;;;;;15.68;10.75;;;;;;;;;;5048742;28;20025;-83
2021/09/15 10:39:30;;;;;;;16.92;11.93;;;;;;;;;;5050586;28;20107;-79
2021/09/15 10:41:55;;;;;;;17.60;10.57;;;;;;;;;;5050363;28;20571;-79
2021/09/15 10:44:21;;;;;;;18.42;11.52;;;;;;;;;;5050536;28;20067;-79
2021/09/15 10:46:46;;;;;;;19.83;11.52;;;;;;;;;;5049820;28;20032;-79
2021/09/15 10:49:24;;;;;;;15.90;11.40;;;;;;;;;;5048885;28;20070;-79
2021/09/15 10:52:07;;;;;;;17.08;12.55;;;;;;;;;;5049958;28;20031;-78
2021/09/15 10:54:38;;;;;;;23.60;11.65;;;;;;;;;;5041833;28;20052;-77
2021/09/15 10:57:16;;;;;;;14.90;9.40;;;;;;;;;;5047944;28;20040;-77
2021/09/15 10:59:47;;;;;;;17.08;12.10;;;;;;;;;;5048577;28;20040;-77
2021/09/15 11:02:29;;;;;;;18.83;12.32;;;;;;;;;;5049723;28;20074;-79
2021/09/15 11:04:56;;;;;;;15.93;10.35;;;;;;;;;;5049253;28;20099;-78
2021/09/15 11:07:54;;;;;;;14.85;9.10;;;;;;;;;;5049198;28;20023;-77
2021/09/15 11:10:31;;;;;;;20.83;11.95;;;;;;;;;;5026143;28;20108;-82
2021/09/15 11:12:56;;;;;;;20.13;12.32;;;;;;;;;;5049988;28;20024;-78
2021/09/15 11:15:34;;;;;;;17.63;11.65;;;;;;;;;;5049399;28;20033;-79
2021/09/15 11:17:59;;;;;;;17.67;11.73;;;;;;;;;;5048948;28;20040;-78
2021/09/15 11:20:25;;;;;;;19.38;11.48;;;;;;;;;;5049152;28;20065;-80
2021/09/15 11:22:51;;;;;;;21.05;11.50;;;;;;;;;;5050374;28;20029;-77
2021/09/15 11:25:17;;;;;;;23.52;13.80;;;;;;;;;;5049172;28;20039;-79
2021/09/15 11:27:59;;;;;;;16.77;11.38;;;;;;;;;;5048618;28;20131;-77
2021/09/15 11:30:24;;;;;;;18.15;11.25;;;;;;;;;;5048897;28;20108;-77
2021/09/15 11:32:50;;;;;;;12.90;9.20;;;;;;;;;;5048775;28;20160;-78
2021/09/15 11:35:17;;;;;;;15.45;8.95;;;;;;;;;;5049286;28;20020;-79
2021/09/15 11:37:42;;;;;;;18.58;11.82;;;;;;;;;;5048850;28;20087;-77
2021/09/15 11:40:07;;;;;;;17.40;10.73;;;;;;;;;;5048001;28;20037;-79
2021/09/15 11:42:35;;;;;;;17.00;11.82;;;;;;;;;;5049487;28;20442;-78
2021/09/15 11:45:11;;;;;;;16.98;10.25;;;;;;;;;;5049735;28;20048;-79
2021/09/15 11:47:37;;;;;;;15.75;10.15;;;;;;;;;;5049740;28;20033;-78
2021/09/15 11:50:14;;;;;;;22.35;12.38;;;;;;;;;;5048274;28;20032;-77
2021/09/15 11:52:41;;;;;;;17.85;12.10;;;;;;;;;;5048814;28;20036;-82
2021/09/15 11:55:10;;;;;;;21.00;11.38;;;;;;;;;;5049166;28;20055;-80
2021/09/15 11:57:41;;;;;;;20.95;12.25;;;;;;;;;;5048192;28;20428;-78
2021/09/15 12:00:07;;;;;;;17.55;11.70;;;;;;;;;;5048867;28;20037;-78
2021/09/15 12:02:34;;;;;;;14.43;9.48;;;;;;;;;;5048764;28;20075;-78
2021/09/15 12:04:59;;;;;;;17.08;10.68;;;;;;;;;;5047305;28;20037;-78
2021/09/15 12:07:25;;;;;;;16.55;10.27;;;;;;;;;;5048842;28;20527;-78
2021/09/15 12:09:50;;;;;;;18.55;12.40;;;;;;;;;;5051675;28;20037;-79
2021/09/15 12:12:15;;;;;;;18.08;11.38;;;;;;;;;;5053179;28;20033;-78
2021/09/15 12:14:43;;;;;;;17.10;11.07;;;;;;;;;;5053135;28;20032;-78
2021/09/15 12:17:08;;;;;;;17.52;11.50;;;;;;;;;;5053085;28;20048;-78
2021/09/15 12:19:36;;;;;;;17.48;11.50;;;;;;;;;;5053550;28;20021;-79
2021/09/15 12:22:02;;;;;;;13.40;9.70;;;;;;;;;;5053281;28;20378;-79
2021/09/15 12:24:27;;;;;;;19.67;11.23;;;;;;;;;;5053069;28;20040;-78
2021/09/15 12:26:53;;;;;;;19.17;12.20;;;;;;;;;;5053354;28;20028;-78
2021/09/15 12:29:22;;;;;;;19.33;11.98;;;;;;;;;;5053298;28;20041;-79
2021/09/15 12:31:51;;;;;;;18.02;10.48;;;;;;;;;;5053386;28;20120;-78
2021/09/15 12:34:27;;;;;;;17.63;11.88;;;;;;;;;;5052841;28;20546;-78
2021/09/15 12:36:52;;;;;;;14.43;9.50;;;;;;;;;;5052704;28;20053;-79
2021/09/15 12:39:17;;;;;;;20.50;13.43;;;;;;;;;;5052976;28;20065;-78
2021/09/15 12:41:51;;;;;;;19.00;10.90;;;;;;;;;;5053007;28;20377;-77
2021/09/15 12:44:17;;;;;;;16.23;10.83;;;;;;;;;;5052447;28;20111;-78
2021/09/15 12:46:46;;;;;;;17.15;10.32;;;;;;;;;;5052930;28;20361;-77
2021/09/15 12:49:11;;;;;;;19.73;12.35;;;;;;;;;;5052691;28;20021;-77
2021/09/15 12:51:38;;;;;;;16.95;10.65;;;;;;;;;;5053337;28;20073;-78
2021/09/15 12:54:04;;;;;;;16.00;10.13;;;;;;;;;;5053536;28;20036;-77
2021/09/15 12:56:33;;;;;;;18.55;12.02;;;;;;;;;;5052471;28;20025;-77
2021/09/15 12:58:59;;;;;;;17.30;11.20;;;;;;;;;;5052783;28;20143;-77
2021/09/15 13:01:24;;;;;;;16.15;9.70;;;;;;;;;;5052740;28;20115;-78
2021/09/15 13:03:54;;;;;;;14.80;9.65;;;;;;;;;;5052805;28;20106;-78
2021/09/15 13:06:23;;;;;;;17.85;10.95;;;;;;;;;;5047985;28;20025;-78
2021/09/15 13:08:49;;;;;;;18.55;9.60;;;;;;;;;;5052379;28;20029;-79
2021/09/15 13:11:14;;;;;;;22.00;13.63;;;;;;;;;;5052220;28;20040;-78
2021/09/15 13:13:40;;;;;;;15.77;10.20;;;;;;;;;;5051895;28;20316;-78
2021/09/15 13:16:05;;;;;;;16.20;10.43;;;;;;;;;;5052659;28;20033;-78
2021/09/15 13:18:30;;;;;;;18.55;9.48;;;;;;;;;;5052085;28;20020;-78
2021/09/15 13:20:56;;;;;;;16.10;9.93;;;;;;;;;;5051261;28;20025;-77
2021/09/15 13:23:21;;;;;;;14.18;8.10;;;;;;;;;;5052940;28;20033;-77
2021/09/15 13:25:46;;;;;;;13.60;8.85;;;;;;;;;;5051867;28;20350;-78
2021/09/15 13:28:12;;;;;;;20.20;9.80;;;;;;;;;;5052665;28;20032;-77
2021/09/15 13:30:37;;;;;;;17.75;10.30;;;;;;;;;;5052451;28;20025;-79
2021/09/15 13:33:02;;;;;;;17.33;9.93;;;;;;;;;;5052327;28;20075;-77
2021/09/15 13:35:28;;;;;;;17.23;9.40;;;;;;;;;;5052326;28;20039;-81
2021/09/15 13:37:53;;;;;;;13.40;8.43;;;;;;;;;;5052549;28;20021;-77
2021/09/15 13:40:19;;;;;;;16.52;10.55;;;;;;;;;;5052489;28;20412;-78
2021/09/15 13:42:44;;;;;;;12.43;8.23;;;;;;;;;;5052409;28;20033;-77
2021/09/15 13:45:15;;;;;;;19.63;10.07;;;;;;;;;;5051988;28;20128;-78
2021/09/15 13:47:44;;;;;;;17.42;10.57;;;;;;;;;;5052158;28;20048;-79
2021/09/15 13:50:10;;;;;;;17.38;11.02;;;;;;;;;;5052199;28;20027;-79
2021/09/15 13:52:35;;;;;;;18.13;11.43;;;;;;;;;;5052713;28;20029;-78
2021/09/15 13:55:00;;;;;;;16.08;9.55;;;;;;;;;;5052331;28;20495;-78
2021/09/15 13:57:27;;;;;;;12.93;7.90;;;;;;;;;;5051562;28;20056;-78
2021/09/15 13:59:52;;;;;;;16.25;8.13;;;;;;;;;;5051972;28;20372;-78
2021/09/15 14:02:17;;;;;;;16.17;10.32;;;;;;;;;;5052173;28;20017;-78
2021/09/15 14:04:42;;;;;;;16.85;10.88;;;;;;;;;;5051933;28;20044;-78
2021/09/15 14:07:08;;;;;;;16.60;9.27;;;;;;;;;;5052334;28;20457;-77
2021/09/15 14:09:33;;;;;;;17.00;9.82;;;;;;;;;;5051622;28;20108;-77
2021/09/15 14:11:59;;;;;;;14.38;9.30;;;;;;;;;;5051907;28;20481;-78
2021/09/15 14:14:24;;;;;;;18.10;10.48;;;;;;;;;;5051692;28;20101;-79